Alpaugh, California
Current Conditions -  °F | °C
As of 4:55 AM on Tuesday 21 Oct 2014 (Local Time) from KPTV Reporting Station
Clear Clear  
Wind Chill: 54°   Ceiling: Unl
Heat Index: 54°   Visibility: 10mi
Dew Point: 46°   Wind: 5mph
Humidity: 77%   Direction: 220°SW
Pressure: 30.04"   Gusts: NA
Location:  35.89°N, 119.49°W
Report Text: KPTV 211155Z 22004KT 10SM CLR 12/08 A3004 RMK AO1 10180 20110 52003
Loading
Personal Weather Stations






























Interactive Weather Map
Tropical Storm Tracking
New forecast layout! Learn more

10-Day Weather Forecast

Advertisements
Track Severe Weather on mobile